Time;durP1;ratioP1;P1;durP2;ratioP2;P2;SDS_P1;SDS_P2;PMS_P1;PMS_P2;Temp;Humidity;BMP_temperature;BMP_pressure;BME280_temperature;BME280_humidity;BME280_pressure;Samples;Min_cycle;Max_cycle;Signal;HPM_P1;HPM_P2
2021/12/10 00:02:09;;;;;;;;;;;18.10;99.90;;;;;;5075976;28;8370;-71
2021/12/10 00:04:36;;;;;;;;;;;18.20;99.90;;;;;;5057698;28;8386;-70
2021/12/10 00:07:04;;;;;;;;;;;18.10;99.90;;;;;;5058593;28;8257;-71
2021/12/10 00:09:40;;;;;;;;;;;18.10;99.90;;;;;;5074753;28;8388;-70
2021/12/10 00:12:12;;;;;;;;;;;18.20;99.90;;;;;;5075340;28;8340;-71
2021/12/10 00:14:38;;;;;;;;;;;18.20;99.90;;;;;;5084097;28;8589;-71
2021/12/10 00:17:05;;;;;;;;;;;18.20;99.90;;;;;;5094641;28;8448;-71
2021/12/10 00:19:43;;;;;;;;;;;18.30;99.90;;;;;;5094964;28;8518;-70
2021/12/10 00:22:11;;;;;;;;;;;18.30;99.90;;;;;;5096855;28;8429;-71
2021/12/10 00:24:38;;;;;;;;;;;18.30;99.90;;;;;;5076959;28;8440;-71
2021/12/10 00:27:06;;;;;;;;;;;18.30;99.90;;;;;;5096217;28;8265;-71
2021/12/10 00:29:33;;;;;;;;;;;18.40;99.90;;;;;;5087084;28;8559;-71
2021/12/10 00:32:04;;;;;;;;;;;18.50;99.90;;;;;;5075547;28;8683;-72
2021/12/10 00:34:33;;;;;;;;;;;18.40;99.90;;;;;;5074116;28;8389;-71
2021/12/10 00:37:00;;;;;;;;;;;18.50;99.90;;;;;;5074789;28;8423;-71
2021/12/10 00:39:28;;;;;;;;;;;18.50;99.90;;;;;;5040033;28;8505;-70
2021/12/10 00:41:54;;;;;;;;;;;18.60;99.90;;;;;;5075636;28;8352;-71
2021/12/10 00:44:21;;;;;;;;;;;18.60;99.90;;;;;;5081120;28;8421;-71
2021/12/10 00:46:47;;;;;;;;;;;18.60;99.90;;;;;;5094089;28;8497;-71
2021/12/10 00:49:13;;;;;;;;;;;18.70;99.90;;;;;;5076909;28;8988;-71
2021/12/10 00:51:40;;;;;;;;;;;18.80;99.90;;;;;;5092135;28;8660;-71
2021/12/10 00:54:06;;;;;;;;;;;18.80;99.90;;;;;;5072133;28;12156;-71
2021/12/10 00:56:32;;;;;;;;;;;18.80;99.90;;;;;;5071840;28;8870;-71
2021/12/10 00:58:59;;;;;;;;;;;18.90;99.90;;;;;;5072163;28;8363;-71
2021/12/10 01:01:26;;;;;;;;;;;18.90;99.90;;;;;;5089194;28;8462;-70
2021/12/10 01:04:01;;;;;;;;;;;18.90;99.90;;;;;;5072537;28;8245;-72
2021/12/10 01:06:27;;;;;;;;;;;19.00;99.90;;;;;;5090335;28;8604;-71
2021/12/10 01:08:55;;;;;;;;;;;19.10;99.90;;;;;;5091693;28;8390;-71
2021/12/10 01:11:34;;;;;;;;;;;19.10;99.90;;;;;;5090365;28;8168;-71
2021/12/10 01:14:11;;;;;;;;;;;19.20;99.90;;;;;;5067999;28;8412;-72
2021/12/10 01:27:33;;;;;;;;;;;19.60;99.90;;;;;;5069786;28;8380;-71
2021/12/10 01:30:06;;;;;;;;;;;19.70;99.90;;;;;;5065602;28;8934;-71
2021/12/10 01:32:33;;;;;;;;;;;19.80;99.90;;;;;;5071140;28;8517;-71
2021/12/10 01:34:59;;;;;;;;;;;19.90;99.90;;;;;;5071648;28;8276;-72
2021/12/10 01:37:26;;;;;;;;;;;19.90;99.90;;;;;;5064399;28;8405;-71
2021/12/10 01:39:52;;;;;;;;;;;20.00;99.90;;;;;;5048502;28;8846;-71
2021/12/10 01:42:33;;;;;;;;;;;20.10;99.90;;;;;;5049257;28;8346;-70
2021/12/10 01:45:05;;;;;;;;;;;20.20;99.90;;;;;;5048994;28;8558;-71
2021/12/10 01:47:33;;;;;;;;;;;20.30;99.90;;;;;;5048340;28;13222;-71
2021/12/10 01:49:59;;;;;;;;;;;20.30;99.90;;;;;;5048411;28;8377;-71
2021/12/10 01:52:25;;;;;;;;;;;20.40;99.90;;;;;;5048819;28;8530;-70
2021/12/10 01:54:53;;;;;;;;;;;20.40;99.90;;;;;;5050223;28;8228;-71
2021/12/10 01:57:20;;;;;;;;;;;20.40;99.90;;;;;;5046643;28;8453;-70
2021/12/10 01:59:46;;;;;;;;;;;20.50;99.90;;;;;;5038163;28;8275;-71
2021/12/10 02:02:15;;;;;;;;;;;20.60;99.90;;;;;;5010055;28;8286;-71
2021/12/10 02:04:41;;;;;;;;;;;20.60;99.90;;;;;;5027666;28;8385;-71
2021/12/10 02:07:08;;;;;;;;;;;20.70;99.90;;;;;;5026864;28;8495;-72
2021/12/10 02:09:34;;;;;;;;;;;20.70;99.90;;;;;;5027846;28;8242;-71
2021/12/10 02:12:01;;;;;;;;;;;20.70;99.90;;;;;;5026979;28;8248;-72
2021/12/10 02:14:27;;;;;;;;;;;20.80;99.90;;;;;;5016565;28;8198;-70
2021/12/10 02:16:56;;;;;;;;;;;20.90;99.90;;;;;;5047355;28;8298;-71
2021/12/10 02:19:22;;;;;;;;;;;21.00;99.90;;;;;;5048120;28;8166;-70
2021/12/10 02:21:49;;;;;;;;;;;21.10;99.90;;;;;;5048200;28;8553;-71
2021/12/10 02:24:15;;;;;;;;;;;21.20;99.90;;;;;;5047276;28;8633;-71
2021/12/10 02:26:43;;;;;;;;;;;21.20;99.90;;;;;;5047810;28;8555;-71
2021/12/10 02:29:09;;;;;;;;;;;21.20;99.90;;;;;;5043612;28;8155;-71
2021/12/10 02:31:35;;;;;;;;;;;21.30;99.90;;;;;;5012324;28;8116;-71
2021/12/10 02:34:02;;;;;;;;;;;21.40;99.90;;;;;;5031604;28;8250;-71
2021/12/10 02:36:31;;;;;;;;;;;21.50;99.90;;;;;;5028865;28;8155;-70
2021/12/10 02:38:58;;;;;;;;;;;21.50;99.90;;;;;;5062479;28;8348;-71
2021/12/10 02:41:25;;;;;;;;;;;21.50;99.90;;;;;;5070119;28;8285;-71
2021/12/10 02:43:52;;;;;;;;;;;21.50;99.90;;;;;;5071926;28;7938;-70
2021/12/10 02:46:18;;;;;;;;;;;21.60;99.90;;;;;;5090989;28;8245;-70
2021/12/10 02:48:44;;;;;;;;;;;21.70;99.90;;;;;;5072837;28;8295;-71
2021/12/10 02:51:11;;;;;;;;;;;21.70;99.90;;;;;;5072640;28;8209;-70
2021/12/10 02:53:41;;;;;;;;;;;21.80;99.90;;;;;;5072431;28;10918;-71
2021/12/10 02:56:08;;;;;;;;;;;21.90;99.90;;;;;;5072025;28;8322;-71
2021/12/10 02:58:34;;;;;;;;;;;22.00;99.90;;;;;;5090696;28;8172;-71
2021/12/10 03:01:03;;;;;;;;;;;21.90;99.90;;;;;;5053715;28;8235;-71
2021/12/10 03:03:29;;;;;;;;;;;22.10;99.90;;;;;;5070550;28;8491;-71
2021/12/10 03:05:55;;;;;;;;;;;22.20;99.90;;;;;;5070261;28;7791;-71
2021/12/10 03:08:21;;;;;;;;;;;22.20;99.90;;;;;;5051333;28;8313;-72
2021/12/10 03:10:48;;;;;;;;;;;22.30;99.90;;;;;;5052646;28;8556;-71
2021/12/10 03:13:15;;;;;;;;;;;22.40;99.90;;;;;;5037939;28;9193;-71
2021/12/10 03:15:41;;;;;;;;;;;22.40;99.90;;;;;;5067908;28;8571;-71
2021/12/10 03:18:08;;;;;;;;;;;22.50;99.90;;;;;;5037563;28;8215;-72
2021/12/10 03:20:35;;;;;;;;;;;22.50;99.90;;;;;;5052697;28;12709;-71
2021/12/10 03:23:04;;;;;;;;;;;22.60;99.90;;;;;;5053551;28;8344;-71
2021/12/10 03:25:31;;;;;;;;;;;22.70;99.90;;;;;;5056305;28;8552;-72
2021/12/10 03:27:57;;;;;;;;;;;22.90;99.90;;;;;;5058001;28;8259;-71
2021/12/10 03:30:24;;;;;;;;;;;22.90;99.90;;;;;;5089727;28;8427;-70
2021/12/10 03:32:51;;;;;;;;;;;22.90;99.90;;;;;;5095045;28;8869;-71
2021/12/10 03:35:33;;;;;;;;;;;22.90;99.90;;;;;;5095234;28;7803;-68
2021/12/10 03:38:00;;;;;;;;;;;23.10;99.90;;;;;;5094579;28;8652;-71
2021/12/10 03:40:26;;;;;;;;;;;23.10;99.90;;;;;;5095133;28;8816;-72
2021/12/10 03:42:58;;;;;;;;;;;23.20;99.90;;;;;;5077777;28;9110;-71
2021/12/10 03:45:25;;;;;;;;;;;23.30;99.90;;;;;;5079628;28;12323;-71
2021/12/10 03:47:51;;;;;;;;;;;23.30;99.90;;;;;;5074601;28;8231;-72
2021/12/10 03:50:25;;;;;;;;;;;23.40;99.90;;;;;;5074613;28;12282;-72
2021/12/10 03:52:51;;;;;;;;;;;23.40;99.90;;;;;;5075121;28;8176;-71
2021/12/10 03:55:18;;;;;;;;;;;23.40;99.90;;;;;;5057618;28;8197;-71
2021/12/10 03:57:46;;;;;;;;;;;23.60;99.90;;;;;;5075382;28;7788;-72
2021/12/10 04:00:13;;;;;;;;;;;23.70;99.90;;;;;;5071629;28;8379;-72
2021/12/10 04:02:39;;;;;;;;;;;23.70;99.90;;;;;;5077197;28;8447;-72
2021/12/10 04:05:05;;;;;;;;;;;23.80;99.90;;;;;;5095922;28;8395;-72
2021/12/10 04:07:32;;;;;;;;;;;23.80;99.90;;;;;;5077179;28;8252;-72
2021/12/10 04:09:58;;;;;;;;;;;24.00;99.90;;;;;;5096153;28;8693;-72
2021/12/10 04:12:24;;;;;;;;;;;24.20;99.90;;;;;;5077390;28;8757;-72
2021/12/10 04:14:50;;;;;;;;;;;24.00;99.90;;;;;;5085630;28;8259;-72
2021/12/10 04:17:19;;;;;;;;;;;24.00;99.90;;;;;;5057323;28;8402;-70
2021/12/10 04:19:45;;;;;;;;;;;24.20;99.90;;;;;;5075308;28;7932;-72
2021/12/10 04:22:12;;;;;;;;;;;24.20;99.90;;;;;;5075043;28;9070;-72
2021/12/10 04:24:38;;;;;;;;;;;24.20;99.90;;;;;;5075070;28;8445;-71
2021/12/10 04:27:05;;;;;;;;;;;24.20;99.90;;;;;;5074405;28;8339;-72
2021/12/10 04:29:31;;;;;;;;;;;24.30;99.90;;;;;;5082576;28;8281;-72
2021/12/10 04:31:57;;;;;;;;;;;24.30;99.90;;;;;;5095817;28;8787;-71
2021/12/10 04:34:24;;;;;;;;;;;24.40;99.90;;;;;;5061202;28;8427;-72
2021/12/10 04:36:50;;;;;;;;;;;24.60;99.90;;;;;;5095595;28;8267;-72
2021/12/10 04:39:17;;;;;;;;;;;24.70;99.90;;;;;;5095597;28;8979;-71
2021/12/10 04:41:43;;;;;;;;;;;24.90;99.90;;;;;;5077300;28;8001;-72
2021/12/10 04:44:09;;;;;;;;;;;24.90;99.90;;;;;;5090368;28;8533;-72
2021/12/10 04:46:36;;;;;;;;;;;24.80;99.90;;;;;;5075266;28;8638;-71
2021/12/10 04:49:06;;;;;;;;;;;24.90;99.90;;;;;;5076092;28;8328;-72
2021/12/10 04:51:39;;;;;;;;;;;25.00;99.90;;;;;;5075069;28;8130;-72
2021/12/10 04:54:06;;;;;;;;;;;25.00;99.90;;;;;;5057041;28;10183;-71
2021/12/10 04:56:32;;;;;;;;;;;25.10;99.90;;;;;;5074948;28;8289;-71
2021/12/10 04:58:59;;;;;;;;;;;25.30;99.90;;;;;;5078759;28;8273;-71
2021/12/10 05:01:25;;;;;;;;;;;25.40;99.90;;;;;;5095300;28;7929;-71
2021/12/10 05:03:52;;;;;;;;;;;25.40;99.90;;;;;;5077378;28;8250;-72
2021/12/10 05:06:18;;;;;;;;;;;25.40;99.90;;;;;;5077305;28;10839;-72
2021/12/10 05:08:44;;;;;;;;;;;25.40;99.90;;;;;;5095128;28;8743;-72
2021/12/10 05:11:10;;;;;;;;;;;25.40;99.90;;;;;;5076645;28;8953;-72
2021/12/10 05:13:37;;;;;;;;;;;25.50;99.90;;;;;;5093689;28;8346;-71
2021/12/10 05:16:03;;;;;;;;;;;25.60;99.90;;;;;;5074719;28;8360;-71
2021/12/10 05:18:31;;;;;;;;;;;25.60;99.90;;;;;;5038819;28;8500;-71
2021/12/10 05:20:58;;;;;;;;;;;25.80;99.90;;;;;;5074040;28;8226;-71
2021/12/10 05:23:24;;;;;;;;;;;25.80;99.90;;;;;;5072645;28;7956;-71
2021/12/10 05:25:50;;;;;;;;;;;26.00;99.90;;;;;;5054404;28;8268;-72
2021/12/10 05:28:17;;;;;;;;;;;26.20;99.90;;;;;;5073600;28;8544;-72
2021/12/10 05:30:44;;;;;;;;;;;26.10;99.90;;;;;;5072272;28;8343;-71
2021/12/10 05:33:15;;;;;;;;;;;26.20;99.90;;;;;;5074804;28;8441;-72
2021/12/10 05:35:41;;;;;;;;;;;26.20;99.90;;;;;;5075694;28;8967;-72
2021/12/10 05:38:08;;;;;;;;;;;26.30;99.90;;;;;;5063346;28;8043;-70
2021/12/10 05:40:34;;;;;;;;;;;26.20;99.90;;;;;;5067300;28;8194;-69
2021/12/10 05:43:00;;;;;;;;;;;26.00;99.90;;;;;;5068531;28;8357;-71
2021/12/10 05:45:26;;;;;;;;;;;26.20;99.90;;;;;;5037119;28;8305;-71
2021/12/10 05:47:53;;;;;;;;;;;26.50;99.90;;;;;;5031645;28;8187;-71
2021/12/10 05:50:19;;;;;;;;;;;26.60;99.90;;;;;;5031154;28;7938;-70
2021/12/10 05:52:46;;;;;;;;;;;26.60;99.70;;;;;;5030950;28;8491;-71
2021/12/10 05:55:12;;;;;;;;;;;26.60;99.20;;;;;;5031750;28;8132;-71
2021/12/10 05:57:38;;;;;;;;;;;26.60;99.80;;;;;;5030596;28;7964;-71
2021/12/10 06:00:06;;;;;;;;;;;26.70;99.10;;;;;;5041908;28;8178;-71
2021/12/10 06:02:35;;;;;;;;;;;26.60;99.10;;;;;;5065417;28;8277;-71
2021/12/10 06:05:01;;;;;;;;;;;26.70;99.20;;;;;;5049678;28;7803;-71
2021/12/10 06:07:27;;;;;;;;;;;26.70;99.40;;;;;;5049719;28;8155;-71
2021/12/10 06:09:54;;;;;;;;;;;26.70;99.40;;;;;;5050353;28;8244;-71
2021/12/10 06:12:20;;;;;;;;;;;26.70;99.40;;;;;;5048819;28;8297;-71
2021/12/10 06:14:46;;;;;;;;;;;27.00;99.40;;;;;;5053278;28;8294;-71
2021/12/10 06:17:12;;;;;;;;;;;27.00;99.00;;;;;;5027738;28;8545;-71
2021/12/10 06:19:38;;;;;;;;;;;27.00;99.40;;;;;;5026996;28;8027;-71
2021/12/10 06:22:05;;;;;;;;;;;27.10;98.50;;;;;;5028913;28;7537;-72
2021/12/10 06:24:32;;;;;;;;;;;27.00;98.10;;;;;;5027046;28;7984;-72
2021/12/10 06:26:58;;;;;;;;;;;27.00;98.20;;;;;;5029070;28;9348;-72
2021/12/10 06:29:27;;;;;;;;;;;27.10;97.80;;;;;;5034375;28;8140;-71
2021/12/10 06:31:53;;;;;;;;;;;27.00;98.20;;;;;;5047039;28;8534;-71
2021/12/10 06:34:19;;;;;;;;;;;27.00;98.60;;;;;;5047231;28;8467;-70
2021/12/10 06:36:48;;;;;;;;;;;27.10;98.40;;;;;;5043341;28;8386;-71
2021/12/10 06:39:19;;;;;;;;;;;27.10;98.20;;;;;;5056793;28;8311;-71
2021/12/10 06:41:52;;;;;;;;;;;27.10;98.60;;;;;;5041718;28;8235;-71
2021/12/10 06:44:18;;;;;;;;;;;27.20;98.00;;;;;;5033455;28;12714;-70
2021/12/10 06:46:45;;;;;;;;;;;27.40;97.20;;;;;;5017566;28;8264;-70
2021/12/10 06:49:12;;;;;;;;;;;27.50;96.70;;;;;;5011847;28;7559;-70
2021/12/10 06:51:38;;;;;;;;;;;27.40;97.00;;;;;;5001145;28;8221;-71
2021/12/10 06:54:04;;;;;;;;;;;27.50;96.30;;;;;;4997673;28;8293;-71
2021/12/10 06:56:33;;;;;;;;;;;27.40;96.70;;;;;;4992603;28;8264;-71
2021/12/10 06:58:59;;;;;;;;;;;27.40;96.80;;;;;;4990035;28;7914;-71
2021/12/10 07:01:27;;;;;;;;;;;27.60;96.40;;;;;;4986572;28;9029;-70
2021/12/10 07:03:54;;;;;;;;;;;27.50;96.70;;;;;;5006377;28;8148;-71
2021/12/10 07:06:20;;;;;;;;;;;27.40;96.80;;;;;;4987105;28;8242;-71
2021/12/10 07:08:46;;;;;;;;;;;27.60;96.40;;;;;;4860430;28;8904;-71
2021/12/10 07:11:14;;;;;;;;;;;27.70;95.50;;;;;;4687566;28;16947;-71
2021/12/10 07:13:41;;;;;;;;;;;27.70;95.90;;;;;;4654301;28;64846;-71
2021/12/10 07:16:07;;;;;;;;;;;27.60;95.60;;;;;;4625973;28;89947;-71
2021/12/10 07:18:34;;;;;;;;;;;27.60;95.00;;;;;;4621342;28;92160;-71
2021/12/10 07:21:00;;;;;;;;;;;27.60;95.60;;;;;;4618839;28;92272;-71
2021/12/10 07:23:26;;;;;;;;;;;27.80;95.00;;;;;;4615449;28;93138;-70
2021/12/10 07:25:53;;;;;;;;;;;27.70;94.70;;;;;;4615240;28;93213;-71
2021/12/10 07:28:19;;;;;;;;;;;27.80;95.30;;;;;;4614262;28;98545;-70
2021/12/10 07:30:47;;;;;;;;;;;27.60;94.00;;;;;;4631687;28;91977;-70
2021/12/10 07:33:14;;;;;;;;;;;27.60;94.30;;;;;;4636114;28;91473;-71
2021/12/10 07:35:40;;;;;;;;;;;27.60;94.90;;;;;;4637846;28;91773;-71
2021/12/10 07:38:06;;;;;;;;;;;27.50;95.00;;;;;;4651191;28;91068;-71
2021/12/10 07:40:33;;;;;;;;;;;27.40;94.60;;;;;;4659980;28;89798;-70
2021/12/10 07:42:59;;;;;;;;;;;27.40;94.40;;;;;;4662410;28;90101;-71
2021/12/10 07:45:25;;;;;;;;;;;27.40;94.50;;;;;;4664544;28;89582;-71
2021/12/10 07:47:52;;;;;;;;;;;27.40;94.60;;;;;;4652618;28;88282;-70
2021/12/10 07:50:21;;;;;;;;;;;27.60;94.10;;;;;;4661887;28;88480;-70
2021/12/10 07:52:48;;;;;;;;;;;27.80;93.40;;;;;;4670987;28;88010;-71
2021/12/10 07:55:15;;;;;;;;;;;27.80;94.00;;;;;;4701155;28;36983;-70
2021/12/10 07:57:42;;;;;;;;;;;27.80;92.60;;;;;;4820496;28;8188;-69
2021/12/10 08:00:10;;;;;;;;;;;27.80;92.70;;;;;;4965549;28;8499;-70
2021/12/10 08:02:36;;;;;;;;;;;27.80;93.20;;;;;;4980321;28;8504;-70
2021/12/10 08:05:02;;;;;;;;;;;27.90;93.60;;;;;;4989884;28;8343;-70
2021/12/10 08:07:29;;;;;;;;;;;28.00;93.00;;;;;;4998408;28;12673;-70
2021/12/10 08:09:55;;;;;;;;;;;28.00;93.30;;;;;;5070505;28;8192;-70
2021/12/10 08:12:21;;;;;;;;;;;27.90;93.00;;;;;;5081783;28;8120;-70
2021/12/10 08:14:52;;;;;;;;;;;27.80;93.60;;;;;;5050599;28;8222;-70
2021/12/10 08:17:23;;;;;;;;;;;28.00;93.60;;;;;;5020753;28;8418;-68
2021/12/10 08:19:50;;;;;;;;;;;28.00;93.60;;;;;;5050533;28;8476;-70
2021/12/10 08:22:16;;;;;;;;;;;28.00;93.80;;;;;;4986266;28;8699;-70
2021/12/10 08:24:42;;;;;;;;;;;27.80;94.30;;;;;;4980077;28;15320;-69
2021/12/10 08:27:09;;;;;;;;;;;27.90;94.10;;;;;;4986078;28;8156;-70
2021/12/10 08:29:35;;;;;;;;;;;27.70;94.60;;;;;;5030465;28;8307;-70
2021/12/10 08:32:02;;;;;;;;;;;27.60;94.50;;;;;;5053432;28;8008;-70
2021/12/10 08:34:29;;;;;;;;;;;27.70;94.00;;;;;;5039166;28;8133;-69
2021/12/10 08:36:55;;;;;;;;;;;27.80;94.20;;;;;;5061215;28;8284;-70
2021/12/10 08:39:24;;;;;;;;;;;27.90;94.50;;;;;;5059715;28;9494;-70
2021/12/10 08:41:51;;;;;;;;;;;27.90;93.70;;;;;;5063446;28;7935;-70
2021/12/10 08:44:17;;;;;;;;;;;27.90;93.80;;;;;;5064454;28;8469;-70
2021/12/10 08:46:44;;;;;;;;;;;28.00;93.60;;;;;;5062708;28;8350;-70
2021/12/10 08:49:10;;;;;;;;;;;28.00;93.20;;;;;;5043329;28;7526;-70
2021/12/10 08:51:44;;;;;;;;;;;27.90;93.40;;;;;;5061601;28;8189;-70
2021/12/10 08:54:12;;;;;;;;;;;28.10;93.10;;;;;;5043547;28;8215;-69
2021/12/10 08:56:39;;;;;;;;;;;28.00;93.10;;;;;;5063761;28;8068;-70
2021/12/10 08:59:05;;;;;;;;;;;28.00;92.70;;;;;;5067687;28;7919;-70
2021/12/10 09:01:32;;;;;;;;;;;28.10;92.90;;;;;;5066892;28;7675;-70
2021/12/10 09:03:59;;;;;;;;;;;27.90;93.50;;;;;;5067422;28;8100;-69
2021/12/10 09:06:26;;;;;;;;;;;27.70;93.30;;;;;;5064942;28;8128;-70
2021/12/10 09:08:52;;;;;;;;;;;27.70;94.00;;;;;;5064668;28;8327;-69
2021/12/10 09:11:19;;;;;;;;;;;27.60;93.90;;;;;;5081042;28;8061;-70
2021/12/10 09:13:45;;;;;;;;;;;27.80;93.50;;;;;;5061051;28;8183;-69
2021/12/10 09:16:17;;;;;;;;;;;27.90;93.00;;;;;;5062449;28;7651;-70
2021/12/10 09:18:44;;;;;;;;;;;27.90;93.10;;;;;;5060053;28;8247;-69
2021/12/10 09:21:10;;;;;;;;;;;27.90;93.70;;;;;;5058250;28;8154;-70
2021/12/10 09:23:36;;;;;;;;;;;27.90;93.70;;;;;;5058696;28;7953;-70
2021/12/10 09:26:06;;;;;;;;;;;27.80;93.40;;;;;;5056522;28;8132;-69
2021/12/10 09:28:32;;;;;;;;;;;27.80;93.40;;;;;;5057616;28;8392;-69
2021/12/10 09:30:58;;;;;;;;;;;27.80;93.10;;;;;;5060648;28;7533;-69
2021/12/10 09:33:25;;;;;;;;;;;27.70;94.00;;;;;;5078722;28;8367;-69
2021/12/10 09:35:51;;;;;;;;;;;27.80;93.60;;;;;;5079524;28;8296;-70
2021/12/10 09:38:20;;;;;;;;;;;27.80;94.00;;;;;;5077092;28;8182;-69
2021/12/10 09:40:47;;;;;;;;;;;27.80;94.00;;;;;;5076853;28;12847;-70
2021/12/10 09:43:13;;;;;;;;;;;27.80;93.30;;;;;;5078135;28;8197;-69
2021/12/10 09:45:40;;;;;;;;;;;27.90;92.90;;;;;;5059251;28;8156;-70
2021/12/10 09:48:07;;;;;;;;;;;27.80;93.20;;;;;;5036091;28;9050;-70
2021/12/10 09:50:34;;;;;;;;;;;27.70;93.70;;;;;;5055306;28;8356;-70
2021/12/10 09:53:00;;;;;;;;;;;27.80;93.10;;;;;;5053601;28;8171;-70
2021/12/10 09:55:27;;;;;;;;;;;27.80;92.90;;;;;;5052430;28;7852;-69
2021/12/10 09:57:53;;;;;;;;;;;27.80;93.40;;;;;;5039260;28;7541;-70
2021/12/10 10:00:25;;;;;;;;;;;27.80;93.80;;;;;;5071922;28;8250;-69
2021/12/10 10:02:52;;;;;;;;;;;27.70;93.80;;;;;;5075993;28;9089;-70
2021/12/10 10:05:18;;;;;;;;;;;27.50;94.20;;;;;;5076683;28;9028;-70
2021/12/10 10:07:51;;;;;;;;;;;27.30;94.80;;;;;;5075544;28;8165;-69
2021/12/10 10:10:17;;;;;;;;;;;27.10;95.80;;;;;;5078740;28;7541;-69
2021/12/10 10:12:44;;;;;;;;;;;27.00;96.50;;;;;;5078215;28;7831;-70
2021/12/10 10:15:11;;;;;;;;;;;26.90;97.00;;;;;;5053954;28;7791;-70
2021/12/10 10:17:38;;;;;;;;;;;26.90;96.90;;;;;;5041780;28;7800;-69
2021/12/10 10:20:05;;;;;;;;;;;26.70;96.80;;;;;;5058346;28;8164;-70
2021/12/10 10:22:31;;;;;;;;;;;26.70;96.90;;;;;;5059565;28;7785;-70
2021/12/10 10:24:58;;;;;;;;;;;26.60;98.10;;;;;;5063339;28;8234;-70
2021/12/10 10:27:29;;;;;;;;;;;26.60;98.80;;;;;;5062353;28;7641;-69
2021/12/10 10:30:01;;;;;;;;;;;26.60;99.40;;;;;;5072350;28;8031;-70
2021/12/10 10:32:29;;;;;;;;;;;26.50;98.50;;;;;;5082590;28;8225;-70
2021/12/10 10:34:58;;;;;;;;;;;26.40;97.30;;;;;;5085020;28;8266;-70
2021/12/10 10:37:24;;;;;;;;;;;26.40;97.80;;;;;;5069638;28;7542;-69
2021/12/10 10:39:51;;;;;;;;;;;26.20;97.90;;;;;;5069332;28;8399;-70
2021/12/10 10:42:23;;;;;;;;;;;26.10;97.80;;;;;;5088288;28;8186;-70
2021/12/10 10:44:50;;;;;;;;;;;26.00;98.30;;;;;;5070447;28;8152;-70
2021/12/10 10:47:16;;;;;;;;;;;26.00;98.30;;;;;;5070671;28;7997;-70
2021/12/10 10:49:46;;;;;;;;;;;25.90;98.10;;;;;;5088872;28;7788;-70
2021/12/10 10:52:15;;;;;;;;;;;25.80;97.40;;;;;;5089635;28;7545;-69
2021/12/10 10:54:42;;;;;;;;;;;25.70;97.60;;;;;;5088505;28;7970;-69
2021/12/10 10:57:12;;;;;;;;;;;25.70;97.60;;;;;;5089203;28;7923;-70
2021/12/10 10:59:38;;;;;;;;;;;25.60;97.70;;;;;;5088652;28;8498;-69
2021/12/10 11:02:07;;;;;;;;;;;25.50;97.80;;;;;;5090242;28;8824;-69
2021/12/10 11:04:38;;;;;;;;;;;25.50;98.00;;;;;;5074237;28;7901;-69
2021/12/10 11:07:05;;;;;;;;;;;25.30;99.20;;;;;;5093528;28;7533;-70
2021/12/10 11:09:32;;;;;;;;;;;25.30;98.90;;;;;;5092856;28;7917;-69
2021/12/10 11:12:06;;;;;;;;;;;25.20;99.00;;;;;;5093832;28;8252;-70
2021/12/10 11:14:42;;;;;;;;;;;25.20;99.00;;;;;;5085311;28;8357;-70
2021/12/10 11:17:14;;;;;;;;;;;25.10;99.40;;;;;;5056045;28;9217;-70
2021/12/10 11:19:43;;;;;;;;;;;25.10;99.80;;;;;;5073480;28;12954;-69
2021/12/10 11:22:10;;;;;;;;;;;25.00;99.90;;;;;;5074461;28;7538;-69
2021/12/10 11:24:45;;;;;;;;;;;24.90;99.90;;;;;;5055717;28;8038;-69
2021/12/10 11:27:15;;;;;;;;;;;24.80;99.90;;;;;;5056626;28;8165;-70
2021/12/10 11:29:43;;;;;;;;;;;24.80;99.90;;;;;;5065068;28;8161;-70
2021/12/10 11:32:09;;;;;;;;;;;24.80;99.90;;;;;;5076827;28;8151;-69
2021/12/10 11:34:47;;;;;;;;;;;24.70;99.90;;;;;;5094005;28;8217;-70
2021/12/10 11:37:13;;;;;;;;;;;24.70;99.90;;;;;;5076770;28;8305;-70
2021/12/10 11:40:06;;;;;;;;;;;24.60;99.90;;;;;;5094534;28;8227;-69
2021/12/10 11:42:41;;;;;;;;;;;24.40;99.90;;;;;;5040674;28;8148;-69
2021/12/10 11:45:30;;;;;;;;;;;24.50;99.90;;;;;;5081943;28;7530;-70
2021/12/10 11:48:05;;;;;;;;;;;24.50;99.90;;;;;;5074054;28;7765;-69
2021/12/10 11:50:32;;;;;;;;;;;24.40;99.90;;;;;;5073497;28;8145;-69
2021/12/10 11:53:02;;;;;;;;;;;24.40;99.90;;;;;;5074243;28;8180;-70
2021/12/10 11:55:28;;;;;;;;;;;24.30;99.90;;;;;;5054956;28;8025;-69
2021/12/10 11:57:54;;;;;;;;;;;24.20;99.90;;;;;;5075552;28;8750;-70
2021/12/10 12:00:22;;;;;;;;;;;24.20;99.90;;;;;;5089423;28;8208;-70
2021/12/10 12:02:49;;;;;;;;;;;24.10;99.90;;;;;;5094057;28;15231;-69
2021/12/10 12:05:17;;;;;;;;;;;24.10;99.90;;;;;;5075917;28;8005;-69
2021/12/10 12:07:47;;;;;;;;;;;24.10;99.90;;;;;;5075535;28;8144;-69
2021/12/10 12:10:22;;;;;;;;;;;24.10;99.90;;;;;;5095578;28;8136;-70
2021/12/10 12:12:50;;;;;;;;;;;24.10;99.90;;;;;;5093964;28;7998;-70
2021/12/10 12:15:33;;;;;;;;;;;23.90;99.90;;;;;;5061534;28;8083;-69
2021/12/10 12:18:00;;;;;;;;;;;23.90;99.90;;;;;;5055478;28;8396;-70
2021/12/10 12:20:31;;;;;;;;;;;23.80;99.90;;;;;;5073598;28;8287;-69
2021/12/10 12:25:44;;;;;;;;;;;23.70;99.90;;;;;;5073372;28;8153;-70
2021/12/10 12:28:12;;;;;;;;;;;23.60;99.90;;;;;;5072853;28;8569;-70
2021/12/10 12:30:50;;;;;;;;;;;23.60;99.90;;;;;;5090085;28;8363;-70
2021/12/10 12:33:16;;;;;;;;;;;23.60;99.90;;;;;;5082541;28;8281;-70
2021/12/10 12:35:42;;;;;;;;;;;23.60;99.90;;;;;;5075336;28;8175;-70
2021/12/10 12:38:20;;;;;;;;;;;23.50;99.90;;;;;;5066444;28;8394;-69
2021/12/10 12:40:47;;;;;;;;;;;23.50;99.90;;;;;;5052957;28;8239;-69
2021/12/10 12:43:13;;;;;;;;;;;23.50;99.90;;;;;;5053797;28;8422;-70
2021/12/10 12:45:40;;;;;;;;;;;23.40;99.90;;;;;;5035557;28;7990;-69
2021/12/10 12:48:10;;;;;;;;;;;23.30;99.90;;;;;;5034582;28;8181;-70
2021/12/10 12:50:37;;;;;;;;;;;23.30;99.90;;;;;;5033700;28;8610;-69
2021/12/10 12:53:12;;;;;;;;;;;23.40;99.90;;;;;;5030638;28;8441;-70
2021/12/10 12:55:47;;;;;;;;;;;23.30;99.90;;;;;;5031753;28;8223;-70
2021/12/10 12:58:13;;;;;;;;;;;23.40;99.90;;;;;;5031014;28;8170;-70
2021/12/10 13:00:55;;;;;;;;;;;23.30;99.90;;;;;;5046705;28;8578;-70
2021/12/10 13:03:41;;;;;;;;;;;23.20;99.90;;;;;;5049877;28;7935;-70
2021/12/10 13:06:10;;;;;;;;;;;23.20;99.90;;;;;;5037312;28;7968;-70
2021/12/10 13:08:38;;;;;;;;;;;23.10;99.90;;;;;;5049732;28;8140;-70
2021/12/10 13:11:14;;;;;;;;;;;23.10;99.90;;;;;;5051416;28;8389;-69
2021/12/10 13:13:46;;;;;;;;;;;23.20;99.90;;;;;;5050444;28;9590;-69
2021/12/10 13:16:13;;;;;;;;;;;23.10;99.90;;;;;;5032281;28;8371;-69
2021/12/10 13:18:42;;;;;;;;;;;23.10;99.90;;;;;;5021012;28;8325;-69
2021/12/10 13:21:09;;;;;;;;;;;23.20;99.90;;;;;;5031546;28;8257;-70
2021/12/10 13:23:36;;;;;;;;;;;23.30;99.90;;;;;;5030685;28;8694;-70
2021/12/10 13:26:03;;;;;;;;;;;23.20;99.90;;;;;;5030148;28;8442;-70
2021/12/10 13:28:29;;;;;;;;;;;23.20;99.90;;;;;;5028759;28;8484;-69
2021/12/10 13:30:57;;;;;;;;;;;22.90;99.90;;;;;;5047405;28;7522;-70
2021/12/10 13:33:25;;;;;;;;;;;22.80;99.90;;;;;;5037981;28;7821;-69
2021/12/10 13:35:52;;;;;;;;;;;22.80;99.90;;;;;;5049647;28;8445;-70
2021/12/10 13:38:20;;;;;;;;;;;22.90;99.90;;;;;;5060461;28;11408;-69
2021/12/10 13:40:46;;;;;;;;;;;22.90;99.90;;;;;;5089233;28;8021;-70
2021/12/10 13:43:14;;;;;;;;;;;22.90;99.90;;;;;;5089922;28;7526;-70
2021/12/10 13:45:42;;;;;;;;;;;22.90;99.90;;;;;;5071862;28;8159;-69
2021/12/10 13:48:13;;;;;;;;;;;22.80;99.90;;;;;;5089865;28;8166;-70
2021/12/10 13:50:44;;;;;;;;;;;22.70;99.90;;;;;;5088883;28;7768;-69
2021/12/10 13:53:11;;;;;;;;;;;22.60;99.90;;;;;;5089333;28;8307;-70
2021/12/10 13:56:10;;;;;;;;;;;22.50;99.90;;;;;;5087710;28;7776;-69
2021/12/10 13:58:47;;;;;;;;;;;22.60;99.90;;;;;;5015443;28;8156;-70
2021/12/10 14:01:31;;;;;;;;;;;22.50;99.90;;;;;;5067685;28;7550;-70
2021/12/10 14:04:03;;;;;;;;;;;22.50;99.90;;;;;;5065756;28;7545;-70
2021/12/10 14:06:40;;;;;;;;;;;22.50;99.90;;;;;;5065434;28;7962;-69
2021/12/10 14:09:07;;;;;;;;;;;22.50;99.90;;;;;;5047165;28;7930;-70
2021/12/10 14:11:57;;;;;;;;;;;22.50;99.90;;;;;;5055959;28;8255;-70
2021/12/10 14:14:20;;;;;;;;;;;22.50;99.90;;;;;;5070720;28;7785;-69
2021/12/10 14:16:53;;;;;;;;;;;22.40;99.90;;;;;;5068042;28;7886;-67
2021/12/10 14:19:39;;;;;;;;;;;22.50;99.90;;;;;;5086294;28;8172;-67
2021/12/10 14:22:06;;;;;;;;;;;22.40;99.90;;;;;;5085534;28;11297;-68
2021/12/10 14:24:34;;;;;;;;;;;22.40;99.90;;;;;;5084732;28;8313;-68
2021/12/10 14:27:11;;;;;;;;;;;22.40;99.90;;;;;;5084938;28;8150;-68
2021/12/10 14:29:38;;;;;;;;;;;22.40;99.90;;;;;;5078605;28;7997;-67
2021/12/10 14:32:39;;;;;;;;;;;22.50;99.90;;;;;;5067525;28;8164;-67
2021/12/10 14:35:07;;;;;;;;;;;22.50;99.90;;;;;;4983423;28;9005;-67
2021/12/10 14:37:52;;;;;;;;;;;22.50;99.90;;;;;;5047211;28;8156;-67
2021/12/10 14:40:19;;;;;;;;;;;22.40;99.90;;;;;;5086366;28;8172;-67
2021/12/10 14:43:04;;;;;;;;;;;22.50;99.90;;;;;;5067693;28;8171;-68
2021/12/10 14:45:30;;;;;;;;;;;22.50;99.90;;;;;;5069022;28;12789;-68
2021/12/10 14:48:16;;;;;;;;;;;22.50;99.90;;;;;;5065081;28;7882;-68
2021/12/10 14:50:56;;;;;;;;;;;22.50;99.90;;;;;;5065403;28;8281;-67